sensor_id;sensor_type;location;lat;lon;timestamp;P1;durP1;ratioP1;P2;durP2;ratioP2
57822;SDS011;43650;48.064;20.624;2023-04-25T00:01:28;11.10;;;6.70;;
57822;SDS011;43650;48.064;20.624;2023-04-25T00:02:28;8.63;;;5.70;;
57822;SDS011;43650;48.064;20.624;2023-04-25T00:03:29;10.20;;;5.77;;
57822;SDS011;43650;48.064;20.624;2023-04-25T00:04:31;10.23;;;6.47;;
57822;SDS011;43650;48.064;20.624;2023-04-25T00:05:33;10.52;;;6.28;;
57822;SDS011;43650;48.064;20.624;2023-04-25T00:06:34;7.90;;;5.43;;
57822;SDS011;43650;48.064;20.624;2023-04-25T00:07:36;8.57;;;5.45;;
57822;SDS011;43650;48.064;20.624;2023-04-25T00:08:36;16.47;;;6.70;;
57822;SDS011;43650;48.064;20.624;2023-04-25T00:09:37;9.57;;;6.53;;
57822;SDS011;43650;48.064;20.624;2023-04-25T00:10:37;9.90;;;5.83;;
57822;SDS011;43650;48.064;20.624;2023-04-25T00:11:38;10.50;;;6.07;;
57822;SDS011;43650;48.064;20.624;2023-04-25T00:12:38;8.73;;;5.70;;
57822;SDS011;43650;48.064;20.624;2023-04-25T00:13:40;10.15;;;6.00;;
57822;SDS011;43650;48.064;20.624;2023-04-25T00:14:41;12.37;;;7.55;;
57822;SDS011;43650;48.064;20.624;2023-04-25T00:15:42;12.40;;;7.33;;
57822;SDS011;43650;48.064;20.624;2023-04-25T00:16:42;13.83;;;9.27;;
57822;SDS011;43650;48.064;20.624;2023-04-25T00:17:43;25.42;;;15.82;;
57822;SDS011;43650;48.064;20.624;2023-04-25T00:18:45;23.80;;;14.13;;
57822;SDS011;43650;48.064;20.624;2023-04-25T00:19:51;12.75;;;7.37;;
57822;SDS011;43650;48.064;20.624;2023-04-25T00:20:52;10.32;;;6.32;;
57822;SDS011;43650;48.064;20.624;2023-04-25T00:21:52;13.40;;;7.27;;
57822;SDS011;43650;48.064;20.624;2023-04-25T00:22:53;10.32;;;7.12;;
57822;SDS011;43650;48.064;20.624;2023-04-25T00:23:54;11.53;;;7.03;;
57822;SDS011;43650;48.064;20.624;2023-04-25T00:24:54;13.62;;;7.57;;
57822;SDS011;43650;48.064;20.624;2023-04-25T00:25:57;12.00;;;6.85;;
57822;SDS011;43650;48.064;20.624;2023-04-25T00:26:57;12.30;;;7.03;;
57822;SDS011;43650;48.064;20.624;2023-04-25T00:27:58;11.53;;;6.43;;
57822;SDS011;43650;48.064;20.624;2023-04-25T00:28:58;10.50;;;6.80;;
57822;SDS011;43650;48.064;20.624;2023-04-25T00:29:59;12.70;;;7.67;;
57822;SDS011;43650;48.064;20.624;2023-04-25T00:31:00;13.45;;;7.45;;
57822;SDS011;43650;48.064;20.624;2023-04-25T00:32:00;9.83;;;6.37;;
57822;SDS011;43650;48.064;20.624;2023-04-25T00:33:01;10.93;;;6.53;;
57822;SDS011;43650;48.064;20.624;2023-04-25T00:34:02;14.60;;;6.80;;
57822;SDS011;43650;48.064;20.624;2023-04-25T00:35:02;10.17;;;6.73;;
57822;SDS011;43650;48.064;20.624;2023-04-25T00:36:03;11.98;;;7.18;;
57822;SDS011;43650;48.064;20.624;2023-04-25T00:37:04;11.52;;;6.75;;
57822;SDS011;43650;48.064;20.624;2023-04-25T00:38:04;12.07;;;6.95;;
57822;SDS011;43650;48.064;20.624;2023-04-25T00:39:05;15.00;;;8.80;;
57822;SDS011;43650;48.064;20.624;2023-04-25T00:40:06;15.68;;;8.68;;
57822;SDS011;43650;48.064;20.624;2023-04-25T00:41:07;15.82;;;8.82;;
57822;SDS011;43650;48.064;20.624;2023-04-25T00:42:08;13.63;;;8.53;;
57822;SDS011;43650;48.064;20.624;2023-04-25T00:43:08;17.17;;;9.03;;
57822;SDS011;43650;48.064;20.624;2023-04-25T00:44:09;14.77;;;8.60;;
57822;SDS011;43650;48.064;20.624;2023-04-25T00:45:12;11.88;;;6.43;;
57822;SDS011;43650;48.064;20.624;2023-04-25T00:46:14;12.70;;;7.25;;
57822;SDS011;43650;48.064;20.624;2023-04-25T00:47:15;11.83;;;6.63;;
57822;SDS011;43650;48.064;20.624;2023-04-25T00:48:15;10.10;;;7.05;;
57822;SDS011;43650;48.064;20.624;2023-04-25T00:49:17;10.20;;;6.62;;
57822;SDS011;43650;48.064;20.624;2023-04-25T00:50:17;11.80;;;7.33;;
57822;SDS011;43650;48.064;20.624;2023-04-25T00:51:19;14.23;;;7.87;;
57822;SDS011;43650;48.064;20.624;2023-04-25T00:52:20;12.30;;;6.68;;
57822;SDS011;43650;48.064;20.624;2023-04-25T00:53:21;13.30;;;6.57;;
57822;SDS011;43650;48.064;20.624;2023-04-25T00:54:22;10.80;;;7.10;;
57822;SDS011;43650;48.064;20.624;2023-04-25T00:55:23;12.82;;;7.12;;
57822;SDS011;43650;48.064;20.624;2023-04-25T00:56:23;10.93;;;6.93;;
57822;SDS011;43650;48.064;20.624;2023-04-25T00:57:25;11.40;;;6.93;;
57822;SDS011;43650;48.064;20.624;2023-04-25T00:58:25;12.02;;;6.53;;
57822;SDS011;43650;48.064;20.624;2023-04-25T00:59:26;11.33;;;7.23;;
57822;SDS011;43650;48.064;20.624;2023-04-25T01:00:28;13.15;;;6.62;;
57822;SDS011;43650;48.064;20.624;2023-04-25T01:01:28;11.30;;;7.03;;
57822;SDS011;43650;48.064;20.624;2023-04-25T01:02:29;12.90;;;6.75;;
57822;SDS011;43650;48.064;20.624;2023-04-25T01:03:31;10.73;;;7.03;;
57822;SDS011;43650;48.064;20.624;2023-04-25T01:04:35;10.98;;;6.53;;
57822;SDS011;43650;48.064;20.624;2023-04-25T01:05:35;14.07;;;6.53;;
57822;SDS011;43650;48.064;20.624;2023-04-25T01:06:36;12.88;;;7.47;;
57822;SDS011;43650;48.064;20.624;2023-04-25T01:07:36;10.60;;;6.90;;
57822;SDS011;43650;48.064;20.624;2023-04-25T01:08:38;10.85;;;6.20;;
57822;SDS011;43650;48.064;20.624;2023-04-25T01:09:39;8.57;;;5.28;;
57822;SDS011;43650;48.064;20.624;2023-04-25T01:10:40;8.05;;;5.57;;
57822;SDS011;43650;48.064;20.624;2023-04-25T01:11:40;10.60;;;6.23;;
57822;SDS011;43650;48.064;20.624;2023-04-25T01:12:41;11.60;;;6.20;;
57822;SDS011;43650;48.064;20.624;2023-04-25T01:13:41;9.93;;;6.32;;
57822;SDS011;43650;48.064;20.624;2023-04-25T01:14:42;10.60;;;5.93;;
57822;SDS011;43650;48.064;20.624;2023-04-25T01:15:42;10.30;;;5.23;;
57822;SDS011;43650;48.064;20.624;2023-04-25T01:16:44;10.65;;;6.15;;
57822;SDS011;43650;48.064;20.624;2023-04-25T01:17:44;9.35;;;5.93;;
57822;SDS011;43650;48.064;20.624;2023-04-25T01:18:45;10.10;;;5.67;;
57822;SDS011;43650;48.064;20.624;2023-04-25T01:19:45;7.53;;;4.85;;
57822;SDS011;43650;48.064;20.624;2023-04-25T01:20:49;9.98;;;5.05;;
57822;SDS011;43650;48.064;20.624;2023-04-25T01:21:51;8.25;;;4.97;;
57822;SDS011;43650;48.064;20.624;2023-04-25T01:22:51;8.10;;;4.72;;
57822;SDS011;43650;48.064;20.624;2023-04-25T01:23:52;9.48;;;5.43;;
57822;SDS011;43650;48.064;20.624;2023-04-25T01:24:54;13.07;;;5.72;;
57822;SDS011;43650;48.064;20.624;2023-04-25T01:25:54;8.97;;;5.60;;
57822;SDS011;43650;48.064;20.624;2023-04-25T01:26:55;11.12;;;5.60;;
57822;SDS011;43650;48.064;20.624;2023-04-25T01:27:56;11.05;;;6.25;;
57822;SDS011;43650;48.064;20.624;2023-04-25T01:28:57;14.80;;;6.87;;
57822;SDS011;43650;48.064;20.624;2023-04-25T01:29:58;12.52;;;5.95;;
57822;SDS011;43650;48.064;20.624;2023-04-25T01:30:59;14.80;;;6.55;;
57822;SDS011;43650;48.064;20.624;2023-04-25T01:32:00;14.27;;;6.10;;
57822;SDS011;43650;48.064;20.624;2023-04-25T01:33:01;12.27;;;6.43;;
57822;SDS011;43650;48.064;20.624;2023-04-25T01:34:04;13.35;;;6.20;;
57822;SDS011;43650;48.064;20.624;2023-04-25T01:35:05;14.20;;;5.87;;
57822;SDS011;43650;48.064;20.624;2023-04-25T01:36:10;11.70;;;6.30;;
57822;SDS011;43650;48.064;20.624;2023-04-25T01:37:10;12.80;;;6.12;;
57822;SDS011;43650;48.064;20.624;2023-04-25T01:38:11;13.63;;;6.87;;
57822;SDS011;43650;48.064;20.624;2023-04-25T01:39:12;10.57;;;5.35;;
57822;SDS011;43650;48.064;20.624;2023-04-25T01:40:12;12.57;;;6.30;;
57822;SDS011;43650;48.064;20.624;2023-04-25T01:41:13;13.37;;;6.23;;
57822;SDS011;43650;48.064;20.624;2023-04-25T01:42:14;12.43;;;6.82;;
57822;SDS011;43650;48.064;20.624;2023-04-25T01:43:15;14.77;;;6.17;;
57822;SDS011;43650;48.064;20.624;2023-04-25T01:44:15;14.10;;;5.97;;
57822;SDS011;43650;48.064;20.624;2023-04-25T01:45:16;13.62;;;6.07;;
57822;SDS011;43650;48.064;20.624;2023-04-25T01:46:17;15.50;;;6.57;;
57822;SDS011;43650;48.064;20.624;2023-04-25T01:47:18;17.33;;;6.50;;
57822;SDS011;43650;48.064;20.624;2023-04-25T01:48:18;12.97;;;6.73;;
57822;SDS011;43650;48.064;20.624;2023-04-25T01:49:19;14.53;;;6.37;;
57822;SDS011;43650;48.064;20.624;2023-04-25T01:50:19;16.70;;;6.93;;
57822;SDS011;43650;48.064;20.624;2023-04-25T01:51:20;17.27;;;7.15;;
57822;SDS011;43650;48.064;20.624;2023-04-25T01:52:20;12.57;;;6.40;;
57822;SDS011;43650;48.064;20.624;2023-04-25T01:53:21;15.43;;;7.55;;
57822;SDS011;43650;48.064;20.624;2023-04-25T01:54:22;16.23;;;6.90;;
57822;SDS011;43650;48.064;20.624;2023-04-25T01:55:23;18.00;;;6.83;;
57822;SDS011;43650;48.064;20.624;2023-04-25T01:56:23;12.30;;;6.43;;
57822;SDS011;43650;48.064;20.624;2023-04-25T01:57:23;13.03;;;6.53;;
57822;SDS011;43650;48.064;20.624;2023-04-25T01:58:24;14.63;;;5.87;;
57822;SDS011;43650;48.064;20.624;2023-04-25T01:59:25;10.87;;;5.40;;
57822;SDS011;43650;48.064;20.624;2023-04-25T02:00:25;13.23;;;5.77;;
57822;SDS011;43650;48.064;20.624;2023-04-25T02:01:26;13.50;;;6.53;;
57822;SDS011;43650;48.064;20.624;2023-04-25T02:02:26;13.40;;;6.50;;
57822;SDS011;43650;48.064;20.624;2023-04-25T02:03:27;12.80;;;6.23;;
57822;SDS011;43650;48.064;20.624;2023-04-25T02:04:27;12.60;;;7.17;;
57822;SDS011;43650;48.064;20.624;2023-04-25T02:05:27;15.80;;;6.80;;
57822;SDS011;43650;48.064;20.624;2023-04-25T02:06:28;11.68;;;6.22;;
57822;SDS011;43650;48.064;20.624;2023-04-25T02:07:31;10.43;;;5.95;;
57822;SDS011;43650;48.064;20.624;2023-04-25T02:08:32;13.02;;;6.62;;
57822;SDS011;43650;48.064;20.624;2023-04-25T02:09:32;11.43;;;5.37;;
57822;SDS011;43650;48.064;20.624;2023-04-25T02:10:33;15.03;;;6.20;;
57822;SDS011;43650;48.064;20.624;2023-04-25T02:11:34;17.05;;;7.37;;
57822;SDS011;43650;48.064;20.624;2023-04-25T02:12:35;16.50;;;7.70;;
57822;SDS011;43650;48.064;20.624;2023-04-25T02:13:36;21.17;;;8.05;;
57822;SDS011;43650;48.064;20.624;2023-04-25T02:14:36;15.10;;;8.13;;
57822;SDS011;43650;48.064;20.624;2023-04-25T02:15:36;20.37;;;8.10;;
57822;SDS011;43650;48.064;20.624;2023-04-25T02:16:37;13.33;;;7.33;;
57822;SDS011;43650;48.064;20.624;2023-04-25T02:17:38;14.32;;;6.25;;
57822;SDS011;43650;48.064;20.624;2023-04-25T02:18:39;17.80;;;7.32;;
57822;SDS011;43650;48.064;20.624;2023-04-25T02:19:39;23.97;;;5.97;;
57822;SDS011;43650;48.064;20.624;2023-04-25T02:20:40;11.63;;;5.60;;
57822;SDS011;43650;48.064;20.624;2023-04-25T02:21:40;11.73;;;5.60;;
57822;SDS011;43650;48.064;20.624;2023-04-25T02:22:40;9.60;;;5.70;;
57822;SDS011;43650;48.064;20.624;2023-04-25T02:23:41;13.18;;;5.82;;
57822;SDS011;43650;48.064;20.624;2023-04-25T02:24:42;12.63;;;6.73;;
57822;SDS011;43650;48.064;20.624;2023-04-25T02:25:42;14.70;;;5.70;;
57822;SDS011;43650;48.064;20.624;2023-04-25T02:26:43;17.47;;;5.83;;
57822;SDS011;43650;48.064;20.624;2023-04-25T02:27:44;13.05;;;5.50;;
57822;SDS011;43650;48.064;20.624;2023-04-25T02:28:44;12.37;;;5.97;;
57822;SDS011;43650;48.064;20.624;2023-04-25T02:29:45;11.83;;;6.03;;
57822;SDS011;43650;48.064;20.624;2023-04-25T02:30:45;12.33;;;6.23;;
57822;SDS011;43650;48.064;20.624;2023-04-25T02:31:46;19.13;;;6.20;;
57822;SDS011;43650;48.064;20.624;2023-04-25T02:32:46;14.43;;;5.40;;
57822;SDS011;43650;48.064;20.624;2023-04-25T02:33:47;16.77;;;6.30;;
57822;SDS011;43650;48.064;20.624;2023-04-25T02:34:47;12.98;;;5.82;;
57822;SDS011;43650;48.064;20.624;2023-04-25T02:35:48;16.50;;;6.20;;
57822;SDS011;43650;48.064;20.624;2023-04-25T02:36:48;29.03;;;6.60;;
57822;SDS011;43650;48.064;20.624;2023-04-25T02:37:50;26.85;;;6.80;;
57822;SDS011;43650;48.064;20.624;2023-04-25T02:38:51;13.33;;;6.60;;
57822;SDS011;43650;48.064;20.624;2023-04-25T02:39:51;15.00;;;6.85;;
57822;SDS011;43650;48.064;20.624;2023-04-25T02:40:52;23.13;;;6.53;;
57822;SDS011;43650;48.064;20.624;2023-04-25T02:41:52;13.30;;;6.23;;
57822;SDS011;43650;48.064;20.624;2023-04-25T02:42:53;16.30;;;5.45;;
57822;SDS011;43650;48.064;20.624;2023-04-25T02:43:54;13.63;;;5.80;;
57822;SDS011;43650;48.064;20.624;2023-04-25T02:44:54;32.53;;;5.73;;
57822;SDS011;43650;48.064;20.624;2023-04-25T02:45:54;17.70;;;5.03;;
57822;SDS011;43650;48.064;20.624;2023-04-25T02:46:55;23.73;;;6.50;;
57822;SDS011;43650;48.064;20.624;2023-04-25T02:47:55;27.23;;;7.43;;
57822;SDS011;43650;48.064;20.624;2023-04-25T02:48:56;16.30;;;5.00;;
57822;SDS011;43650;48.064;20.624;2023-04-25T02:49:56;19.77;;;5.47;;
57822;SDS011;43650;48.064;20.624;2023-04-25T02:50:57;13.67;;;5.30;;
57822;SDS011;43650;48.064;20.624;2023-04-25T02:51:57;21.77;;;5.50;;
57822;SDS011;43650;48.064;20.624;2023-04-25T02:52:57;10.40;;;4.93;;
57822;SDS011;43650;48.064;20.624;2023-04-25T02:53:58;20.67;;;5.80;;
57822;SDS011;43650;48.064;20.624;2023-04-25T02:54:58;11.00;;;4.93;;
57822;SDS011;43650;48.064;20.624;2023-04-25T02:55:59;10.33;;;5.00;;
57822;SDS011;43650;48.064;20.624;2023-04-25T02:56:59;19.17;;;6.27;;
57822;SDS011;43650;48.064;20.624;2023-04-25T02:58:00;18.92;;;5.50;;
57822;SDS011;43650;48.064;20.624;2023-04-25T02:59:01;10.20;;;5.33;;
57822;SDS011;43650;48.064;20.624;2023-04-25T03:00:01;8.40;;;4.30;;
57822;SDS011;43650;48.064;20.624;2023-04-25T03:01:04;20.85;;;5.53;;
57822;SDS011;43650;48.064;20.624;2023-04-25T03:02:05;8.83;;;5.20;;
57822;SDS011;43650;48.064;20.624;2023-04-25T03:03:05;8.97;;;4.37;;
57822;SDS011;43650;48.064;20.624;2023-04-25T03:04:06;12.33;;;5.03;;
57822;SDS011;43650;48.064;20.624;2023-04-25T03:05:06;9.63;;;4.87;;
57822;SDS011;43650;48.064;20.624;2023-04-25T03:06:07;8.27;;;4.30;;
57822;SDS011;43650;48.064;20.624;2023-04-25T03:07:07;7.60;;;4.33;;
57822;SDS011;43650;48.064;20.624;2023-04-25T03:08:08;7.83;;;4.30;;
57822;SDS011;43650;48.064;20.624;2023-04-25T03:09:08;8.00;;;3.83;;
57822;SDS011;43650;48.064;20.624;2023-04-25T03:10:09;9.23;;;4.93;;
57822;SDS011;43650;48.064;20.624;2023-04-25T03:11:10;22.37;;;4.40;;
57822;SDS011;43650;48.064;20.624;2023-04-25T03:12:10;10.30;;;3.80;;
57822;SDS011;43650;48.064;20.624;2023-04-25T03:13:11;9.90;;;3.23;;
57822;SDS011;43650;48.064;20.624;2023-04-25T03:14:12;9.00;;;4.30;;
57822;SDS011;43650;48.064;20.624;2023-04-25T03:15:13;7.25;;;4.37;;
57822;SDS011;43650;48.064;20.624;2023-04-25T03:16:13;6.20;;;3.23;;
57822;SDS011;43650;48.064;20.624;2023-04-25T03:17:13;8.33;;;3.83;;
57822;SDS011;43650;48.064;20.624;2023-04-25T03:18:14;8.00;;;4.13;;
57822;SDS011;43650;48.064;20.624;2023-04-25T03:19:14;10.57;;;4.97;;
57822;SDS011;43650;48.064;20.624;2023-04-25T03:20:17;8.18;;;4.75;;
57822;SDS011;43650;48.064;20.624;2023-04-25T03:21:17;12.00;;;5.37;;
57822;SDS011;43650;48.064;20.624;2023-04-25T03:22:18;12.80;;;4.90;;
57822;SDS011;43650;48.064;20.624;2023-04-25T03:23:18;10.00;;;4.50;;
57822;SDS011;43650;48.064;20.624;2023-04-25T03:24:19;9.20;;;4.47;;
57822;SDS011;43650;48.064;20.624;2023-04-25T03:25:19;13.67;;;5.00;;
57822;SDS011;43650;48.064;20.624;2023-04-25T03:26:19;15.10;;;4.37;;
57822;SDS011;43650;48.064;20.624;2023-04-25T03:27:20;10.27;;;4.53;;
57822;SDS011;43650;48.064;20.624;2023-04-25T03:28:21;7.23;;;3.70;;
57822;SDS011;43650;48.064;20.624;2023-04-25T03:29:21;13.48;;;5.10;;
57822;SDS011;43650;48.064;20.624;2023-04-25T03:30:24;9.65;;;4.60;;
57822;SDS011;43650;48.064;20.624;2023-04-25T03:31:24;18.37;;;3.73;;
57822;SDS011;43650;48.064;20.624;2023-04-25T03:32:25;18.80;;;4.12;;
57822;SDS011;43650;48.064;20.624;2023-04-25T03:33:26;9.80;;;4.13;;
57822;SDS011;43650;48.064;20.624;2023-04-25T03:34:26;4.93;;;2.83;;
57822;SDS011;43650;48.064;20.624;2023-04-25T03:35:27;7.03;;;3.50;;
57822;SDS011;43650;48.064;20.624;2023-04-25T03:36:27;10.83;;;3.57;;
57822;SDS011;43650;48.064;20.624;2023-04-25T03:37:27;5.93;;;3.57;;
57822;SDS011;43650;48.064;20.624;2023-04-25T03:38:28;12.60;;;3.27;;
57822;SDS011;43650;48.064;20.624;2023-04-25T03:39:28;6.57;;;3.53;;
57822;SDS011;43650;48.064;20.624;2023-04-25T03:40:30;15.95;;;4.47;;
57822;SDS011;43650;48.064;20.624;2023-04-25T03:41:30;5.00;;;2.97;;
57822;SDS011;43650;48.064;20.624;2023-04-25T03:42:30;7.73;;;3.67;;
57822;SDS011;43650;48.064;20.624;2023-04-25T03:43:31;5.63;;;2.77;;
57822;SDS011;43650;48.064;20.624;2023-04-25T03:44:31;6.47;;;2.87;;
57822;SDS011;43650;48.064;20.624;2023-04-25T03:45:32;5.53;;;2.93;;
57822;SDS011;43650;48.064;20.624;2023-04-25T03:46:32;6.73;;;3.20;;
57822;SDS011;43650;48.064;20.624;2023-04-25T03:47:33;8.20;;;4.23;;
57822;SDS011;43650;48.064;20.624;2023-04-25T03:48:33;11.00;;;3.93;;
57822;SDS011;43650;48.064;20.624;2023-04-25T03:49:34;8.07;;;3.87;;
57822;SDS011;43650;48.064;20.624;2023-04-25T03:50:34;6.10;;;3.20;;
57822;SDS011;43650;48.064;20.624;2023-04-25T03:51:35;7.00;;;3.97;;
57822;SDS011;43650;48.064;20.624;2023-04-25T03:52:35;9.00;;;4.07;;
57822;SDS011;43650;48.064;20.624;2023-04-25T03:53:36;19.17;;;9.50;;
57822;SDS011;43650;48.064;20.624;2023-04-25T03:54:37;26.60;;;13.18;;
57822;SDS011;43650;48.064;20.624;2023-04-25T03:55:37;24.97;;;11.40;;
57822;SDS011;43650;48.064;20.624;2023-04-25T03:56:38;16.90;;;9.43;;
57822;SDS011;43650;48.064;20.624;2023-04-25T03:57:38;14.03;;;7.10;;
57822;SDS011;43650;48.064;20.624;2023-04-25T03:58:39;16.97;;;7.90;;
57822;SDS011;43650;48.064;20.624;2023-04-25T03:59:39;12.30;;;6.20;;
57822;SDS011;43650;48.064;20.624;2023-04-25T04:00:40;15.27;;;4.10;;
57822;SDS011;43650;48.064;20.624;2023-04-25T04:01:40;17.40;;;4.90;;
57822;SDS011;43650;48.064;20.624;2023-04-25T04:02:40;13.97;;;5.57;;
57822;SDS011;43650;48.064;20.624;2023-04-25T04:03:41;10.23;;;4.90;;
57822;SDS011;43650;48.064;20.624;2023-04-25T04:04:41;18.40;;;5.33;;
57822;SDS011;43650;48.064;20.624;2023-04-25T04:05:44;8.07;;;5.05;;
57822;SDS011;43650;48.064;20.624;2023-04-25T04:06:45;14.02;;;5.93;;
57822;SDS011;43650;48.064;20.624;2023-04-25T04:07:45;11.52;;;6.80;;
57822;SDS011;43650;48.064;20.624;2023-04-25T04:08:46;15.80;;;12.50;;
57822;SDS011;43650;48.064;20.624;2023-04-25T04:09:47;15.60;;;9.63;;
57822;SDS011;43650;48.064;20.624;2023-04-25T04:10:47;9.80;;;6.73;;
57822;SDS011;43650;48.064;20.624;2023-04-25T04:11:47;13.17;;;5.47;;
57822;SDS011;43650;48.064;20.624;2023-04-25T04:12:48;17.47;;;5.00;;
57822;SDS011;43650;48.064;20.624;2023-04-25T04:13:48;6.07;;;3.47;;
57822;SDS011;43650;48.064;20.624;2023-04-25T04:14:49;7.07;;;3.30;;
57822;SDS011;43650;48.064;20.624;2023-04-25T04:15:49;8.73;;;3.63;;
57822;SDS011;43650;48.064;20.624;2023-04-25T04:16:50;12.73;;;3.60;;
57822;SDS011;43650;48.064;20.624;2023-04-25T04:17:51;15.05;;;7.22;;
57822;SDS011;43650;48.064;20.624;2023-04-25T04:18:51;17.77;;;6.97;;
57822;SDS011;43650;48.064;20.624;2023-04-25T04:19:52;18.33;;;6.87;;
57822;SDS011;43650;48.064;20.624;2023-04-25T04:20:52;14.87;;;6.90;;
57822;SDS011;43650;48.064;20.624;2023-04-25T04:21:53;10.47;;;5.57;;
57822;SDS011;43650;48.064;20.624;2023-04-25T04:22:54;19.12;;;8.63;;
57822;SDS011;43650;48.064;20.624;2023-04-25T04:23:54;17.87;;;8.07;;
57822;SDS011;43650;48.064;20.624;2023-04-25T04:24:55;14.53;;;5.63;;
57822;SDS011;43650;48.064;20.624;2023-04-25T04:25:56;16.00;;;6.40;;
57822;SDS011;43650;48.064;20.624;2023-04-25T04:26:57;15.30;;;7.70;;
57822;SDS011;43650;48.064;20.624;2023-04-25T04:27:57;27.07;;;12.80;;
57822;SDS011;43650;48.064;20.624;2023-04-25T04:28:58;33.53;;;14.82;;
57822;SDS011;43650;48.064;20.624;2023-04-25T04:29:59;12.52;;;5.47;;
57822;SDS011;43650;48.064;20.624;2023-04-25T04:31:00;12.30;;;6.07;;
57822;SDS011;43650;48.064;20.624;2023-04-25T04:32:00;14.32;;;5.87;;
57822;SDS011;43650;48.064;20.624;2023-04-25T04:34:03;9.88;;;3.40;;
57822;SDS011;43650;48.064;20.624;2023-04-25T04:35:04;4.97;;;3.03;;
57822;SDS011;43650;48.064;20.624;2023-04-25T04:37:07;7.28;;;3.92;;
57822;SDS011;43650;48.064;20.624;2023-04-25T04:38:08;9.17;;;4.57;;
57822;SDS011;43650;48.064;20.624;2023-04-25T04:39:08;9.67;;;5.67;;
57822;SDS011;43650;48.064;20.624;2023-04-25T04:40:09;10.60;;;4.68;;
57822;SDS011;43650;48.064;20.624;2023-04-25T04:41:10;7.75;;;3.72;;
57822;SDS011;43650;48.064;20.624;2023-04-25T04:42:10;8.97;;;4.57;;
57822;SDS011;43650;48.064;20.624;2023-04-25T04:43:12;6.85;;;3.97;;
57822;SDS011;43650;48.064;20.624;2023-04-25T04:44:13;7.43;;;3.40;;
57822;SDS011;43650;48.064;20.624;2023-04-25T04:45:14;6.07;;;3.97;;
57822;SDS011;43650;48.064;20.624;2023-04-25T04:46:14;10.80;;;4.17;;
57822;SDS011;43650;48.064;20.624;2023-04-25T04:47:16;8.98;;;4.93;;
57822;SDS011;43650;48.064;20.624;2023-04-25T04:48:16;12.07;;;6.13;;
57822;SDS011;43650;48.064;20.624;2023-04-25T04:49:17;10.97;;;4.57;;
57822;SDS011;43650;48.064;20.624;2023-04-25T04:50:17;7.57;;;4.00;;
57822;SDS011;43650;48.064;20.624;2023-04-25T04:51:18;11.68;;;4.82;;
57822;SDS011;43650;48.064;20.624;2023-04-25T04:52:18;18.83;;;7.33;;
57822;SDS011;43650;48.064;20.624;2023-04-25T04:53:19;18.77;;;6.70;;
57822;SDS011;43650;48.064;20.624;2023-04-25T04:54:19;11.73;;;4.87;;
57822;SDS011;43650;48.064;20.624;2023-04-25T04:55:20;9.15;;;3.78;;
57822;SDS011;43650;48.064;20.624;2023-04-25T04:56:20;7.60;;;4.57;;
57822;SDS011;43650;48.064;20.624;2023-04-25T04:57:23;8.13;;;4.70;;
57822;SDS011;43650;48.064;20.624;2023-04-25T04:58:23;9.13;;;3.73;;
57822;SDS011;43650;48.064;20.624;2023-04-25T04:59:24;6.80;;;3.50;;
57822;SDS011;43650;48.064;20.624;2023-04-25T05:00:24;11.77;;;3.63;;
57822;SDS011;43650;48.064;20.624;2023-04-25T05:01:25;13.07;;;3.70;;
57822;SDS011;43650;48.064;20.624;2023-04-25T05:02:26;12.20;;;6.62;;
57822;SDS011;43650;48.064;20.624;2023-04-25T05:03:26;21.42;;;7.82;;
57822;SDS011;43650;48.064;20.624;2023-04-25T05:04:27;8.97;;;4.70;;
57822;SDS011;43650;48.064;20.624;2023-04-25T05:05:27;30.97;;;7.23;;
57822;SDS011;43650;48.064;20.624;2023-04-25T05:06:28;5.17;;;2.83;;
57822;SDS011;43650;48.064;20.624;2023-04-25T05:07:31;5.20;;;2.92;;
57822;SDS011;43650;48.064;20.624;2023-04-25T05:08:32;6.27;;;2.90;;
57822;SDS011;43650;48.064;20.624;2023-04-25T05:09:32;5.60;;;3.03;;
57822;SDS011;43650;48.064;20.624;2023-04-25T05:10:32;4.53;;;3.00;;
57822;SDS011;43650;48.064;20.624;2023-04-25T05:11:33;8.57;;;3.90;;
57822;SDS011;43650;48.064;20.624;2023-04-25T05:12:34;7.40;;;3.90;;
57822;SDS011;43650;48.064;20.624;2023-04-25T05:13:34;8.47;;;4.00;;
57822;SDS011;43650;48.064;20.624;2023-04-25T05:14:34;7.83;;;4.00;;
57822;SDS011;43650;48.064;20.624;2023-04-25T05:15:35;9.47;;;5.23;;
57822;SDS011;43650;48.064;20.624;2023-04-25T05:16:35;15.33;;;6.90;;
57822;SDS011;43650;48.064;20.624;2023-04-25T05:17:36;29.93;;;12.70;;
57822;SDS011;43650;48.064;20.624;2023-04-25T05:18:36;20.67;;;8.70;;
57822;SDS011;43650;48.064;20.624;2023-04-25T05:19:37;13.33;;;7.67;;
57822;SDS011;43650;48.064;20.624;2023-04-25T05:20:38;10.75;;;5.78;;
57822;SDS011;43650;48.064;20.624;2023-04-25T05:21:38;8.13;;;4.83;;
57822;SDS011;43650;48.064;20.624;2023-04-25T05:22:38;8.10;;;4.77;;
57822;SDS011;43650;48.064;20.624;2023-04-25T05:23:39;7.73;;;4.27;;
57822;SDS011;43650;48.064;20.624;2023-04-25T05:24:39;8.50;;;4.30;;
57822;SDS011;43650;48.064;20.624;2023-04-25T05:25:40;10.47;;;5.10;;
57822;SDS011;43650;48.064;20.624;2023-04-25T05:26:40;8.03;;;4.87;;
57822;SDS011;43650;48.064;20.624;2023-04-25T05:27:41;7.93;;;5.30;;
57822;SDS011;43650;48.064;20.624;2023-04-25T05:28:41;7.63;;;4.57;;
57822;SDS011;43650;48.064;20.624;2023-04-25T05:29:42;8.38;;;3.95;;
57822;SDS011;43650;48.064;20.624;2023-04-25T05:30:42;6.57;;;3.70;;
57822;SDS011;43650;48.064;20.624;2023-04-25T05:31:42;7.83;;;3.80;;
57822;SDS011;43650;48.064;20.624;2023-04-25T05:32:44;7.22;;;4.87;;
57822;SDS011;43650;48.064;20.624;2023-04-25T05:33:45;8.50;;;5.15;;
57822;SDS011;43650;48.064;20.624;2023-04-25T05:34:45;6.37;;;3.83;;
57822;SDS011;43650;48.064;20.624;2023-04-25T05:35:46;7.93;;;4.40;;
57822;SDS011;43650;48.064;20.624;2023-04-25T05:36:46;6.65;;;3.67;;
57822;SDS011;43650;48.064;20.624;2023-04-25T05:38:48;8.48;;;4.78;;
57822;SDS011;43650;48.064;20.624;2023-04-25T05:39:49;7.87;;;5.40;;
57822;SDS011;43650;48.064;20.624;2023-04-25T05:40:49;11.00;;;5.83;;
57822;SDS011;43650;48.064;20.624;2023-04-25T05:41:50;12.97;;;7.33;;
57822;SDS011;43650;48.064;20.624;2023-04-25T05:42:50;11.80;;;7.82;;
57822;SDS011;43650;48.064;20.624;2023-04-25T05:43:51;11.50;;;7.07;;
57822;SDS011;43650;48.064;20.624;2023-04-25T05:44:51;7.10;;;4.60;;
57822;SDS011;43650;48.064;20.624;2023-04-25T05:45:51;13.33;;;7.60;;
57822;SDS011;43650;48.064;20.624;2023-04-25T05:46:52;7.90;;;4.93;;
57822;SDS011;43650;48.064;20.624;2023-04-25T05:47:52;9.10;;;4.60;;
57822;SDS011;43650;48.064;20.624;2023-04-25T05:48:53;10.40;;;5.57;;
57822;SDS011;43650;48.064;20.624;2023-04-25T05:49:53;8.83;;;4.50;;
57822;SDS011;43650;48.064;20.624;2023-04-25T05:50:53;8.67;;;5.37;;
57822;SDS011;43650;48.064;20.624;2023-04-25T05:51:54;10.33;;;4.53;;
57822;SDS011;43650;48.064;20.624;2023-04-25T05:52:54;7.13;;;4.47;;
57822;SDS011;43650;48.064;20.624;2023-04-25T05:53:55;8.00;;;4.63;;
57822;SDS011;43650;48.064;20.624;2023-04-25T05:54:55;8.23;;;4.73;;
57822;SDS011;43650;48.064;20.624;2023-04-25T05:55:56;8.23;;;4.63;;
57822;SDS011;43650;48.064;20.624;2023-04-25T05:56:57;7.68;;;5.03;;
57822;SDS011;43650;48.064;20.624;2023-04-25T05:57:57;8.18;;;5.30;;
57822;SDS011;43650;48.064;20.624;2023-04-25T05:58:58;10.80;;;4.87;;
57822;SDS011;43650;48.064;20.624;2023-04-25T05:59:58;9.10;;;5.40;;
57822;SDS011;43650;48.064;20.624;2023-04-25T06:00:59;7.17;;;4.57;;